sensor_id;sensor_type;location;lat;lon;timestamp;P1;durP1;ratioP1;P2;durP2;ratioP2
27802;SDS011;15182;48.174;11.562;2023-04-25T00:02:13;2.40;;;2.30;;
27802;SDS011;15182;48.174;11.562;2023-04-25T00:04:45;2.50;;;2.37;;
27802;SDS011;15182;48.174;11.562;2023-04-25T00:07:17;2.60;;;2.60;;
27802;SDS011;15182;48.174;11.562;2023-04-25T00:09:49;2.30;;;2.30;;
27802;SDS011;15182;48.174;11.562;2023-04-25T00:12:20;3.03;;;2.97;;
27802;SDS011;15182;48.174;11.562;2023-04-25T00:14:55;2.60;;;2.60;;
27802;SDS011;15182;48.174;11.562;2023-04-25T00:17:27;2.30;;;2.30;;
27802;SDS011;15182;48.174;11.562;2023-04-25T00:20:00;2.90;;;2.80;;
27802;SDS011;15182;48.174;11.562;2023-04-25T00:22:36;2.70;;;2.60;;
27802;SDS011;15182;48.174;11.562;2023-04-25T00:25:10;2.90;;;2.80;;
27802;SDS011;15182;48.174;11.562;2023-04-25T00:27:41;2.70;;;2.70;;
27802;SDS011;15182;48.174;11.562;2023-04-25T00:30:13;2.67;;;2.67;;
27802;SDS011;15182;48.174;11.562;2023-04-25T00:32:45;2.47;;;2.47;;
27802;SDS011;15182;48.174;11.562;2023-04-25T00:35:16;2.70;;;2.70;;
27802;SDS011;15182;48.174;11.562;2023-04-25T00:37:49;2.70;;;2.70;;
27802;SDS011;15182;48.174;11.562;2023-04-25T00:40:28;2.73;;;2.60;;
27802;SDS011;15182;48.174;11.562;2023-04-25T00:43:01;2.50;;;2.50;;
27802;SDS011;15182;48.174;11.562;2023-04-25T00:45:33;3.03;;;3.03;;
27802;SDS011;15182;48.174;11.562;2023-04-25T00:48:10;2.63;;;2.53;;
27802;SDS011;15182;48.174;11.562;2023-04-25T00:50:43;3.17;;;3.07;;
27802;SDS011;15182;48.174;11.562;2023-04-25T00:53:19;2.67;;;2.67;;
27802;SDS011;15182;48.174;11.562;2023-04-25T00:55:53;3.07;;;3.00;;
27802;SDS011;15182;48.174;11.562;2023-04-25T00:58:24;2.70;;;2.60;;
27802;SDS011;15182;48.174;11.562;2023-04-25T01:00:52;2.67;;;2.67;;
27802;SDS011;15182;48.174;11.562;2023-04-25T01:03:21;2.70;;;2.70;;
27802;SDS011;15182;48.174;11.562;2023-04-25T01:05:49;2.50;;;2.50;;
27802;SDS011;15182;48.174;11.562;2023-04-25T01:08:18;2.90;;;2.70;;
27802;SDS011;15182;48.174;11.562;2023-04-25T01:10:49;2.97;;;2.87;;
27802;SDS011;15182;48.174;11.562;2023-04-25T01:13:16;2.73;;;2.73;;
27802;SDS011;15182;48.174;11.562;2023-04-25T01:15:44;2.60;;;2.60;;
27802;SDS011;15182;48.174;11.562;2023-04-25T01:18:12;2.50;;;2.50;;
27802;SDS011;15182;48.174;11.562;2023-04-25T01:20:40;2.50;;;2.50;;
27802;SDS011;15182;48.174;11.562;2023-04-25T01:23:10;2.50;;;2.50;;
27802;SDS011;15182;48.174;11.562;2023-04-25T01:25:39;2.63;;;2.50;;
27802;SDS011;15182;48.174;11.562;2023-04-25T01:28:07;2.63;;;2.63;;
27802;SDS011;15182;48.174;11.562;2023-04-25T01:30:36;2.80;;;2.80;;
27802;SDS011;15182;48.174;11.562;2023-04-25T01:33:05;2.47;;;2.37;;
27802;SDS011;15182;48.174;11.562;2023-04-25T01:35:35;2.83;;;2.73;;
27802;SDS011;15182;48.174;11.562;2023-04-25T01:38:03;2.60;;;2.60;;
27802;SDS011;15182;48.174;11.562;2023-04-25T01:40:34;2.73;;;2.73;;
27802;SDS011;15182;48.174;11.562;2023-04-25T01:43:04;2.63;;;2.60;;
27802;SDS011;15182;48.174;11.562;2023-04-25T01:45:34;3.10;;;2.80;;
27802;SDS011;15182;48.174;11.562;2023-04-25T01:48:02;2.70;;;2.70;;
27802;SDS011;15182;48.174;11.562;2023-04-25T01:50:31;2.70;;;2.60;;
27802;SDS011;15182;48.174;11.562;2023-04-25T01:52:59;2.97;;;2.87;;
27802;SDS011;15182;48.174;11.562;2023-04-25T01:55:27;2.70;;;2.60;;
27802;SDS011;15182;48.174;11.562;2023-04-25T01:58:02;3.03;;;2.97;;
27802;SDS011;15182;48.174;11.562;2023-04-25T02:01:01;2.57;;;2.47;;
27802;SDS011;15182;48.174;11.562;2023-04-25T02:03:36;3.00;;;3.00;;
27802;SDS011;15182;48.174;11.562;2023-04-25T02:06:07;2.70;;;2.70;;
27802;SDS011;15182;48.174;11.562;2023-04-25T02:08:38;2.43;;;2.43;;
27802;SDS011;15182;48.174;11.562;2023-04-25T02:11:06;2.40;;;2.40;;
27802;SDS011;15182;48.174;11.562;2023-04-25T02:13:42;2.57;;;2.47;;
27802;SDS011;15182;48.174;11.562;2023-04-25T02:16:19;2.70;;;2.60;;
27802;SDS011;15182;48.174;11.562;2023-04-25T02:18:47;3.13;;;2.40;;
27802;SDS011;15182;48.174;11.562;2023-04-25T02:21:18;3.10;;;3.10;;
27802;SDS011;15182;48.174;11.562;2023-04-25T02:23:46;2.93;;;2.83;;
27802;SDS011;15182;48.174;11.562;2023-04-25T02:26:15;2.63;;;2.53;;
27802;SDS011;15182;48.174;11.562;2023-04-25T02:28:44;2.97;;;2.97;;
27802;SDS011;15182;48.174;11.562;2023-04-25T02:31:12;2.43;;;2.43;;
27802;SDS011;15182;48.174;11.562;2023-04-25T02:33:39;3.03;;;2.90;;
27802;SDS011;15182;48.174;11.562;2023-04-25T02:36:07;3.00;;;2.80;;
27802;SDS011;15182;48.174;11.562;2023-04-25T02:38:35;3.00;;;2.73;;
27802;SDS011;15182;48.174;11.562;2023-04-25T02:41:04;2.60;;;2.60;;
27802;SDS011;15182;48.174;11.562;2023-04-25T02:43:32;3.47;;;3.27;;
27802;SDS011;15182;48.174;11.562;2023-04-25T02:46:01;2.73;;;2.53;;
27802;SDS011;15182;48.174;11.562;2023-04-25T02:48:29;2.97;;;2.87;;
27802;SDS011;15182;48.174;11.562;2023-04-25T02:50:57;2.77;;;2.70;;
27802;SDS011;15182;48.174;11.562;2023-04-25T02:53:24;2.93;;;2.93;;
27802;SDS011;15182;48.174;11.562;2023-04-25T02:55:53;3.00;;;2.80;;
27802;SDS011;15182;48.174;11.562;2023-04-25T02:58:24;3.00;;;2.90;;
27802;SDS011;15182;48.174;11.562;2023-04-25T03:00:53;2.80;;;2.80;;
27802;SDS011;15182;48.174;11.562;2023-04-25T03:03:22;2.77;;;2.67;;
27802;SDS011;15182;48.174;11.562;2023-04-25T03:05:51;3.17;;;2.97;;
27802;SDS011;15182;48.174;11.562;2023-04-25T03:08:24;3.03;;;2.83;;
27802;SDS011;15182;48.174;11.562;2023-04-25T03:10:56;2.47;;;2.37;;
27802;SDS011;15182;48.174;11.562;2023-04-25T03:13:24;2.50;;;2.50;;
27802;SDS011;15182;48.174;11.562;2023-04-25T03:15:53;2.87;;;2.87;;
27802;SDS011;15182;48.174;11.562;2023-04-25T03:18:22;3.10;;;3.00;;
27802;SDS011;15182;48.174;11.562;2023-04-25T03:20:50;2.87;;;2.77;;
27802;SDS011;15182;48.174;11.562;2023-04-25T03:23:18;2.73;;;2.63;;
27802;SDS011;15182;48.174;11.562;2023-04-25T03:25:46;3.00;;;2.90;;
27802;SDS011;15182;48.174;11.562;2023-04-25T03:28:14;2.80;;;2.70;;
27802;SDS011;15182;48.174;11.562;2023-04-25T03:30:41;2.90;;;2.80;;
27802;SDS011;15182;48.174;11.562;2023-04-25T03:33:10;2.73;;;2.63;;
27802;SDS011;15182;48.174;11.562;2023-04-25T03:35:39;3.03;;;2.73;;
27802;SDS011;15182;48.174;11.562;2023-04-25T03:38:08;2.97;;;2.87;;
27802;SDS011;15182;48.174;11.562;2023-04-25T03:40:39;3.10;;;2.90;;
27802;SDS011;15182;48.174;11.562;2023-04-25T03:43:18;2.80;;;2.70;;
27802;SDS011;15182;48.174;11.562;2023-04-25T03:45:52;2.60;;;2.60;;
27802;SDS011;15182;48.174;11.562;2023-04-25T03:48:22;2.73;;;2.63;;
27802;SDS011;15182;48.174;11.562;2023-04-25T03:50:52;2.63;;;2.63;;
27802;SDS011;15182;48.174;11.562;2023-04-25T03:53:20;2.90;;;2.80;;
27802;SDS011;15182;48.174;11.562;2023-04-25T03:56:14;2.67;;;2.60;;
27802;SDS011;15182;48.174;11.562;2023-04-25T03:58:43;3.17;;;2.97;;
27802;SDS011;15182;48.174;11.562;2023-04-25T04:01:13;2.60;;;2.60;;
27802;SDS011;15182;48.174;11.562;2023-04-25T04:03:41;2.77;;;2.40;;
27802;SDS011;15182;48.174;11.562;2023-04-25T04:06:10;2.50;;;2.40;;
27802;SDS011;15182;48.174;11.562;2023-04-25T04:08:42;2.60;;;2.60;;
27802;SDS011;15182;48.174;11.562;2023-04-25T04:11:11;2.80;;;2.70;;
27802;SDS011;15182;48.174;11.562;2023-04-25T04:13:38;3.10;;;2.90;;
27802;SDS011;15182;48.174;11.562;2023-04-25T04:16:08;2.50;;;2.50;;
27802;SDS011;15182;48.174;11.562;2023-04-25T04:18:37;2.80;;;2.60;;
27802;SDS011;15182;48.174;11.562;2023-04-25T04:21:05;2.67;;;2.67;;
27802;SDS011;15182;48.174;11.562;2023-04-25T04:23:37;8.03;;;2.60;;
27802;SDS011;15182;48.174;11.562;2023-04-25T04:26:05;2.60;;;2.60;;
27802;SDS011;15182;48.174;11.562;2023-04-25T04:28:45;2.73;;;2.73;;
27802;SDS011;15182;48.174;11.562;2023-04-25T04:31:35;2.43;;;2.43;;
27802;SDS011;15182;48.174;11.562;2023-04-25T04:34:03;3.00;;;2.80;;
27802;SDS011;15182;48.174;11.562;2023-04-25T04:36:33;2.50;;;2.50;;
27802;SDS011;15182;48.174;11.562;2023-04-25T04:39:03;2.43;;;2.43;;
27802;SDS011;15182;48.174;11.562;2023-04-25T04:41:37;2.50;;;2.50;;
27802;SDS011;15182;48.174;11.562;2023-04-25T04:44:09;2.87;;;2.77;;
27802;SDS011;15182;48.174;11.562;2023-04-25T04:46:58;2.87;;;2.87;;
27802;SDS011;15182;48.174;11.562;2023-04-25T04:49:40;2.47;;;2.47;;
27802;SDS011;15182;48.174;11.562;2023-04-25T04:52:30;3.27;;;2.50;;
27802;SDS011;15182;48.174;11.562;2023-04-25T04:55:18;2.70;;;2.70;;
27802;SDS011;15182;48.174;11.562;2023-04-25T04:58:04;2.67;;;2.67;;
27802;SDS011;15182;48.174;11.562;2023-04-25T05:00:41;2.77;;;2.77;;
27802;SDS011;15182;48.174;11.562;2023-04-25T05:03:10;3.03;;;3.03;;
27802;SDS011;15182;48.174;11.562;2023-04-25T05:05:51;3.00;;;3.00;;
27802;SDS011;15182;48.174;11.562;2023-04-25T05:08:32;3.00;;;2.90;;
27802;SDS011;15182;48.174;11.562;2023-04-25T05:11:27;2.90;;;2.80;;
27802;SDS011;15182;48.174;11.562;2023-04-25T05:14:04;3.00;;;2.90;;
27802;SDS011;15182;48.174;11.562;2023-04-25T05:16:42;2.87;;;2.87;;
27802;SDS011;15182;48.174;11.562;2023-04-25T05:19:34;3.10;;;2.90;;
27802;SDS011;15182;48.174;11.562;2023-04-25T05:22:22;2.97;;;2.97;;
27802;SDS011;15182;48.174;11.562;2023-04-25T05:24:59;3.20;;;3.10;;
27802;SDS011;15182;48.174;11.562;2023-04-25T05:27:42;3.03;;;2.93;;
27802;SDS011;15182;48.174;11.562;2023-04-25T05:30:35;3.37;;;3.27;;
27802;SDS011;15182;48.174;11.562;2023-04-25T05:33:08;3.00;;;2.90;;
27802;SDS011;15182;48.174;11.562;2023-04-25T05:35:37;3.00;;;2.90;;
27802;SDS011;15182;48.174;11.562;2023-04-25T05:38:05;2.93;;;2.83;;
27802;SDS011;15182;48.174;11.562;2023-04-25T05:40:53;2.83;;;2.63;;
27802;SDS011;15182;48.174;11.562;2023-04-25T05:43:44;3.63;;;3.37;;
27802;SDS011;15182;48.174;11.562;2023-04-25T05:46:34;4.40;;;3.10;;
27802;SDS011;15182;48.174;11.562;2023-04-25T05:49:21;3.20;;;3.10;;
27802;SDS011;15182;48.174;11.562;2023-04-25T05:51:52;2.93;;;2.83;;
27802;SDS011;15182;48.174;11.562;2023-04-25T05:54:37;3.03;;;2.90;;
27802;SDS011;15182;48.174;11.562;2023-04-25T05:57:16;3.17;;;3.07;;
27802;SDS011;15182;48.174;11.562;2023-04-25T05:59:48;3.17;;;2.93;;
27802;SDS011;15182;48.174;11.562;2023-04-25T06:02:21;3.03;;;2.70;;
27802;SDS011;15182;48.174;11.562;2023-04-25T06:04:53;3.30;;;3.20;;
27802;SDS011;15182;48.174;11.562;2023-04-25T06:07:25;3.30;;;3.10;;
27802;SDS011;15182;48.174;11.562;2023-04-25T06:09:56;3.10;;;3.00;;
27802;SDS011;15182;48.174;11.562;2023-04-25T06:12:28;3.00;;;2.80;;
27802;SDS011;15182;48.174;11.562;2023-04-25T06:15:01;3.00;;;2.90;;
27802;SDS011;15182;48.174;11.562;2023-04-25T06:17:33;2.93;;;2.90;;
27802;SDS011;15182;48.174;11.562;2023-04-25T06:20:06;3.60;;;3.50;;
27802;SDS011;15182;48.174;11.562;2023-04-25T06:22:39;3.53;;;3.20;;
27802;SDS011;15182;48.174;11.562;2023-04-25T06:25:11;3.33;;;3.33;;
27802;SDS011;15182;48.174;11.562;2023-04-25T06:27:42;3.40;;;3.20;;
27802;SDS011;15182;48.174;11.562;2023-04-25T06:30:15;3.23;;;3.03;;
27802;SDS011;15182;48.174;11.562;2023-04-25T06:32:50;2.83;;;2.83;;
27802;SDS011;15182;48.174;11.562;2023-04-25T06:35:23;3.40;;;3.10;;
27802;SDS011;15182;48.174;11.562;2023-04-25T06:37:54;3.83;;;3.60;;
27802;SDS011;15182;48.174;11.562;2023-04-25T06:40:25;2.70;;;2.70;;
27802;SDS011;15182;48.174;11.562;2023-04-25T06:42:57;3.67;;;3.47;;
27802;SDS011;15182;48.174;11.562;2023-04-25T06:45:43;3.43;;;3.17;;
27802;SDS011;15182;48.174;11.562;2023-04-25T06:48:16;2.87;;;2.87;;
27802;SDS011;15182;48.174;11.562;2023-04-25T06:50:47;3.00;;;3.00;;
27802;SDS011;15182;48.174;11.562;2023-04-25T06:53:19;3.13;;;3.03;;
27802;SDS011;15182;48.174;11.562;2023-04-25T06:55:56;3.37;;;3.17;;
27802;SDS011;15182;48.174;11.562;2023-04-25T06:58:46;3.13;;;3.03;;
27802;SDS011;15182;48.174;11.562;2023-04-25T07:01:37;3.40;;;3.17;;
27802;SDS011;15182;48.174;11.562;2023-04-25T07:04:14;3.87;;;3.47;;
27802;SDS011;15182;48.174;11.562;2023-04-25T07:06:52;3.50;;;3.40;;
27802;SDS011;15182;48.174;11.562;2023-04-25T07:09:42;3.93;;;3.50;;
27802;SDS011;15182;48.174;11.562;2023-04-25T07:12:14;3.57;;;3.47;;
27802;SDS011;15182;48.174;11.562;2023-04-25T07:14:46;3.23;;;3.03;;
27802;SDS011;15182;48.174;11.562;2023-04-25T07:17:19;3.50;;;3.30;;
27802;SDS011;15182;48.174;11.562;2023-04-25T07:19:51;3.37;;;3.30;;
27802;SDS011;15182;48.174;11.562;2023-04-25T07:22:22;3.07;;;3.07;;
27802;SDS011;15182;48.174;11.562;2023-04-25T07:24:53;4.07;;;3.30;;
27802;SDS011;15182;48.174;11.562;2023-04-25T07:27:28;3.23;;;3.13;;
27802;SDS011;15182;48.174;11.562;2023-04-25T07:30:08;3.23;;;2.97;;
27802;SDS011;15182;48.174;11.562;2023-04-25T07:32:42;3.43;;;3.33;;
27802;SDS011;15182;48.174;11.562;2023-04-25T07:35:13;3.10;;;2.97;;
27802;SDS011;15182;48.174;11.562;2023-04-25T07:37:44;3.20;;;3.00;;
27802;SDS011;15182;48.174;11.562;2023-04-25T07:40:18;3.20;;;2.97;;
27802;SDS011;15182;48.174;11.562;2023-04-25T07:42:54;3.00;;;3.00;;
27802;SDS011;15182;48.174;11.562;2023-04-25T07:45:35;2.90;;;2.80;;
27802;SDS011;15182;48.174;11.562;2023-04-25T07:48:08;3.00;;;2.90;;
27802;SDS011;15182;48.174;11.562;2023-04-25T07:50:42;3.07;;;2.97;;
27802;SDS011;15182;48.174;11.562;2023-04-25T07:53:14;2.90;;;2.90;;
27802;SDS011;15182;48.174;11.562;2023-04-25T07:55:57;2.83;;;2.83;;
27802;SDS011;15182;48.174;11.562;2023-04-25T07:58:34;3.20;;;3.20;;
27802;SDS011;15182;48.174;11.562;2023-04-25T08:01:08;3.20;;;3.00;;
27802;SDS011;15182;48.174;11.562;2023-04-25T08:03:51;2.87;;;2.77;;
27802;SDS011;15182;48.174;11.562;2023-04-25T08:06:48;3.10;;;3.00;;
27802;SDS011;15182;48.174;11.562;2023-04-25T08:09:23;3.23;;;2.90;;
27802;SDS011;15182;48.174;11.562;2023-04-25T08:11:55;3.27;;;3.17;;
27802;SDS011;15182;48.174;11.562;2023-04-25T08:14:31;2.80;;;2.70;;
27802;SDS011;15182;48.174;11.562;2023-04-25T08:17:04;3.20;;;3.10;;
27802;SDS011;15182;48.174;11.562;2023-04-25T08:19:41;3.00;;;2.90;;
27802;SDS011;15182;48.174;11.562;2023-04-25T08:22:21;2.90;;;2.80;;
27802;SDS011;15182;48.174;11.562;2023-04-25T08:25:06;3.10;;;3.00;;
27802;SDS011;15182;48.174;11.562;2023-04-25T08:27:39;3.10;;;3.00;;
27802;SDS011;15182;48.174;11.562;2023-04-25T08:30:11;2.30;;;2.30;;
27802;SDS011;15182;48.174;11.562;2023-04-25T08:32:44;3.10;;;2.80;;
27802;SDS011;15182;48.174;11.562;2023-04-25T08:35:27;2.63;;;2.53;;
27802;SDS011;15182;48.174;11.562;2023-04-25T08:37:59;2.93;;;2.73;;
27802;SDS011;15182;48.174;11.562;2023-04-25T08:40:32;3.03;;;2.93;;
27802;SDS011;15182;48.174;11.562;2023-04-25T08:43:16;2.73;;;2.63;;
27802;SDS011;15182;48.174;11.562;2023-04-25T08:45:48;3.40;;;3.10;;
27802;SDS011;15182;48.174;11.562;2023-04-25T08:48:39;2.63;;;2.50;;
27802;SDS011;15182;48.174;11.562;2023-04-25T08:51:21;3.07;;;2.90;;
27802;SDS011;15182;48.174;11.562;2023-04-25T08:53:54;2.90;;;2.63;;
27802;SDS011;15182;48.174;11.562;2023-04-25T08:56:37;2.40;;;2.40;;
27802;SDS011;15182;48.174;11.562;2023-04-25T08:59:11;2.90;;;2.80;;
27802;SDS011;15182;48.174;11.562;2023-04-25T09:01:44;2.70;;;2.70;;
27802;SDS011;15182;48.174;11.562;2023-04-25T09:04:16;2.83;;;2.83;;
27802;SDS011;15182;48.174;11.562;2023-04-25T09:06:50;2.60;;;2.50;;
27802;SDS011;15182;48.174;11.562;2023-04-25T09:09:23;2.63;;;2.63;;
27802;SDS011;15182;48.174;11.562;2023-04-25T09:11:54;2.77;;;2.70;;
27802;SDS011;15182;48.174;11.562;2023-04-25T09:14:27;2.27;;;2.27;;
27802;SDS011;15182;48.174;11.562;2023-04-25T09:17:03;2.37;;;2.37;;
27802;SDS011;15182;48.174;11.562;2023-04-25T09:19:53;2.73;;;2.53;;
27802;SDS011;15182;48.174;11.562;2023-04-25T09:22:32;2.80;;;2.60;;
27802;SDS011;15182;48.174;11.562;2023-04-25T09:25:03;2.43;;;2.33;;
27802;SDS011;15182;48.174;11.562;2023-04-25T09:27:48;2.30;;;2.20;;
27802;SDS011;15182;48.174;11.562;2023-04-25T09:30:30;2.93;;;2.10;;
27802;SDS011;15182;48.174;11.562;2023-04-25T09:33:12;2.20;;;2.10;;
27802;SDS011;15182;48.174;11.562;2023-04-25T09:35:48;2.30;;;2.30;;
27802;SDS011;15182;48.174;11.562;2023-04-25T09:38:31;2.10;;;2.10;;
27802;SDS011;15182;48.174;11.562;2023-04-25T09:41:25;2.57;;;2.40;;
27802;SDS011;15182;48.174;11.562;2023-04-25T09:44:00;2.00;;;2.00;;
27802;SDS011;15182;48.174;11.562;2023-04-25T09:46:35;2.30;;;2.20;;
27802;SDS011;15182;48.174;11.562;2023-04-25T09:49:14;1.87;;;1.87;;
27802;SDS011;15182;48.174;11.562;2023-04-25T09:52:05;2.00;;;2.00;;
27802;SDS011;15182;48.174;11.562;2023-04-25T09:54:44;2.70;;;2.50;;
27802;SDS011;15182;48.174;11.562;2023-04-25T09:57:24;2.50;;;2.40;;
27802;SDS011;15182;48.174;11.562;2023-04-25T09:59:57;2.33;;;2.20;;
27802;SDS011;15182;48.174;11.562;2023-04-25T10:02:40;2.60;;;2.40;;
27802;SDS011;15182;48.174;11.562;2023-04-25T10:05:37;2.37;;;2.17;;
27802;SDS011;15182;48.174;11.562;2023-04-25T10:08:11;3.23;;;2.63;;
27802;SDS011;15182;48.174;11.562;2023-04-25T10:10:45;2.57;;;2.37;;
27802;SDS011;15182;48.174;11.562;2023-04-25T10:13:17;3.47;;;2.60;;
27802;SDS011;15182;48.174;11.562;2023-04-25T10:15:49;2.43;;;2.33;;
27802;SDS011;15182;48.174;11.562;2023-04-25T10:18:23;2.10;;;2.00;;
27802;SDS011;15182;48.174;11.562;2023-04-25T10:20:57;2.50;;;2.40;;
27802;SDS011;15182;48.174;11.562;2023-04-25T10:23:30;2.17;;;2.17;;
27802;SDS011;15182;48.174;11.562;2023-04-25T10:26:05;2.07;;;1.97;;
27802;SDS011;15182;48.174;11.562;2023-04-25T10:31:27;2.10;;;1.90;;
27802;SDS011;15182;48.174;11.562;2023-04-25T10:34:00;2.30;;;2.20;;
27802;SDS011;15182;48.174;11.562;2023-04-25T10:36:31;2.57;;;2.40;;
27802;SDS011;15182;48.174;11.562;2023-04-25T10:39:04;2.10;;;2.10;;
27802;SDS011;15182;48.174;11.562;2023-04-25T10:41:47;2.10;;;2.10;;
27802;SDS011;15182;48.174;11.562;2023-04-25T10:44:24;2.37;;;1.90;;
27802;SDS011;15182;48.174;11.562;2023-04-25T10:46:58;2.37;;;2.37;;
27802;SDS011;15182;48.174;11.562;2023-04-25T10:49:32;1.93;;;1.93;;
27802;SDS011;15182;48.174;11.562;2023-04-25T10:52:18;2.00;;;2.00;;
27802;SDS011;15182;48.174;11.562;2023-04-25T10:54:54;8.37;;;2.20;;
27802;SDS011;15182;48.174;11.562;2023-04-25T10:57:30;2.10;;;2.00;;
27802;SDS011;15182;48.174;11.562;2023-04-25T11:00:07;2.20;;;2.10;;
27802;SDS011;15182;48.174;11.562;2023-04-25T11:02:40;2.30;;;2.30;;
27802;SDS011;15182;48.174;11.562;2023-04-25T11:05:20;2.50;;;2.40;;
27802;SDS011;15182;48.174;11.562;2023-04-25T11:08:00;2.20;;;2.10;;
27802;SDS011;15182;48.174;11.562;2023-04-25T11:10:39;2.50;;;2.50;;
27802;SDS011;15182;48.174;11.562;2023-04-25T11:13:12;2.60;;;2.50;;
27802;SDS011;15182;48.174;11.562;2023-04-25T11:15:44;2.40;;;2.30;;
27802;SDS011;15182;48.174;11.562;2023-04-25T11:18:19;2.30;;;2.30;;
27802;SDS011;15182;48.174;11.562;2023-04-25T11:20:54;2.27;;;2.07;;
27802;SDS011;15182;48.174;11.562;2023-04-25T11:23:26;2.20;;;2.20;;
27802;SDS011;15182;48.174;11.562;2023-04-25T11:25:58;2.10;;;2.10;;
27802;SDS011;15182;48.174;11.562;2023-04-25T11:28:31;2.10;;;2.00;;
27802;SDS011;15182;48.174;11.562;2023-04-25T11:31:02;1.87;;;1.87;;
27802;SDS011;15182;48.174;11.562;2023-04-25T11:33:33;2.30;;;2.30;;
27802;SDS011;15182;48.174;11.562;2023-04-25T11:36:15;2.00;;;2.00;;
27802;SDS011;15182;48.174;11.562;2023-04-25T11:38:46;2.17;;;2.10;;
27802;SDS011;15182;48.174;11.562;2023-04-25T11:41:17;2.40;;;2.20;;
27802;SDS011;15182;48.174;11.562;2023-04-25T11:43:50;2.17;;;2.17;;
27802;SDS011;15182;48.174;11.562;2023-04-25T11:46:21;2.37;;;2.20;;
27802;SDS011;15182;48.174;11.562;2023-04-25T11:48:53;2.33;;;2.30;;
27802;SDS011;15182;48.174;11.562;2023-04-25T11:51:26;2.30;;;2.30;;
27802;SDS011;15182;48.174;11.562;2023-04-25T11:53:58;2.40;;;2.30;;
27802;SDS011;15182;48.174;11.562;2023-04-25T11:56:29;2.57;;;2.50;;
27802;SDS011;15182;48.174;11.562;2023-04-25T11:59:05;2.23;;;2.10;;
27802;SDS011;15182;48.174;11.562;2023-04-25T12:01:37;2.17;;;2.17;;
27802;SDS011;15182;48.174;11.562;2023-04-25T12:04:15;2.20;;;2.20;;
27802;SDS011;15182;48.174;11.562;2023-04-25T12:06:49;2.10;;;2.00;;
27802;SDS011;15182;48.174;11.562;2023-04-25T12:09:28;2.13;;;2.13;;
27802;SDS011;15182;48.174;11.562;2023-04-25T12:12:00;2.20;;;2.20;;
27802;SDS011;15182;48.174;11.562;2023-04-25T12:14:34;2.63;;;2.53;;
27802;SDS011;15182;48.174;11.562;2023-04-25T12:17:06;2.13;;;2.13;;
27802;SDS011;15182;48.174;11.562;2023-04-25T12:19:38;2.40;;;2.30;;
27802;SDS011;15182;48.174;11.562;2023-04-25T12:22:19;2.10;;;2.10;;
27802;SDS011;15182;48.174;11.562;2023-04-25T12:24:52;2.13;;;2.13;;
27802;SDS011;15182;48.174;11.562;2023-04-25T12:27:25;2.10;;;2.10;;
27802;SDS011;15182;48.174;11.562;2023-04-25T12:29:58;2.40;;;2.33;;
27802;SDS011;15182;48.174;11.562;2023-04-25T12:32:30;1.83;;;1.83;;
27802;SDS011;15182;48.174;11.562;2023-04-25T12:35:03;2.30;;;2.30;;
27802;SDS011;15182;48.174;11.562;2023-04-25T12:37:38;2.40;;;2.40;;
27802;SDS011;15182;48.174;11.562;2023-04-25T12:40:09;2.13;;;2.13;;
27802;SDS011;15182;48.174;11.562;2023-04-25T12:42:41;2.20;;;2.20;;
27802;SDS011;15182;48.174;11.562;2023-04-25T12:45:14;2.43;;;2.43;;
27802;SDS011;15182;48.174;11.562;2023-04-25T12:47:45;2.40;;;2.40;;
27802;SDS011;15182;48.174;11.562;2023-04-25T12:50:16;2.40;;;2.40;;
27802;SDS011;15182;48.174;11.562;2023-04-25T12:52:48;2.37;;;2.30;;
27802;SDS011;15182;48.174;11.562;2023-04-25T12:55:20;2.27;;;2.17;;
27802;SDS011;15182;48.174;11.562;2023-04-25T12:57:53;2.47;;;2.47;;
27802;SDS011;15182;48.174;11.562;2023-04-25T13:00:26;2.47;;;2.47;;
27802;SDS011;15182;48.174;11.562;2023-04-25T13:02:57;2.50;;;2.50;;
27802;SDS011;15182;48.174;11.562;2023-04-25T13:05:30;2.23;;;2.23;;
27802;SDS011;15182;48.174;11.562;2023-04-25T13:08:02;2.40;;;2.40;;
27802;SDS011;15182;48.174;11.562;2023-04-25T13:10:33;3.17;;;2.57;;
27802;SDS011;15182;48.174;11.562;2023-04-25T13:13:05;2.50;;;2.50;;
27802;SDS011;15182;48.174;11.562;2023-04-25T13:15:38;2.40;;;2.40;;
27802;SDS011;15182;48.174;11.562;2023-04-25T13:18:10;2.27;;;2.27;;
27802;SDS011;15182;48.174;11.562;2023-04-25T13:20:41;2.50;;;2.33;;
27802;SDS011;15182;48.174;11.562;2023-04-25T13:23:13;2.50;;;2.50;;
27802;SDS011;15182;48.174;11.562;2023-04-25T13:25:44;2.37;;;2.27;;
27802;SDS011;15182;48.174;11.562;2023-04-25T13:28:15;2.20;;;2.20;;
27802;SDS011;15182;48.174;11.562;2023-04-25T13:30:48;2.20;;;2.20;;
27802;SDS011;15182;48.174;11.562;2023-04-25T13:33:19;2.27;;;2.23;;
27802;SDS011;15182;48.174;11.562;2023-04-25T13:35:51;2.40;;;2.40;;
27802;SDS011;15182;48.174;11.562;2023-04-25T13:38:23;2.37;;;2.37;;
27802;SDS011;15182;48.174;11.562;2023-04-25T13:40:55;2.10;;;2.10;;
27802;SDS011;15182;48.174;11.562;2023-04-25T13:43:26;2.17;;;2.17;;
27802;SDS011;15182;48.174;11.562;2023-04-25T13:46:01;2.37;;;2.37;;
27802;SDS011;15182;48.174;11.562;2023-04-25T13:48:32;2.20;;;2.10;;
27802;SDS011;15182;48.174;11.562;2023-04-25T13:51:03;2.00;;;1.90;;
27802;SDS011;15182;48.174;11.562;2023-04-25T13:53:34;6.10;;;1.90;;
27802;SDS011;15182;48.174;11.562;2023-04-25T13:56:06;2.40;;;2.23;;
27802;SDS011;15182;48.174;11.562;2023-04-25T13:58:38;2.20;;;2.20;;
27802;SDS011;15182;48.174;11.562;2023-04-25T14:01:10;2.13;;;2.13;;
27802;SDS011;15182;48.174;11.562;2023-04-25T14:03:43;2.37;;;2.33;;
27802;SDS011;15182;48.174;11.562;2023-04-25T14:06:14;2.50;;;2.30;;
27802;SDS011;15182;48.174;11.562;2023-04-25T14:08:48;2.10;;;2.10;;
27802;SDS011;15182;48.174;11.562;2023-04-25T14:11:20;2.30;;;2.30;;
27802;SDS011;15182;48.174;11.562;2023-04-25T14:13:51;2.23;;;2.23;;
27802;SDS011;15182;48.174;11.562;2023-04-25T14:16:24;2.47;;;2.47;;
27802;SDS011;15182;48.174;11.562;2023-04-25T14:18:57;2.63;;;2.53;;
27802;SDS011;15182;48.174;11.562;2023-04-25T14:21:29;2.40;;;2.40;;
27802;SDS011;15182;48.174;11.562;2023-04-25T14:24:00;2.87;;;2.67;;
27802;SDS011;15182;48.174;11.562;2023-04-25T14:26:33;2.20;;;2.20;;
27802;SDS011;15182;48.174;11.562;2023-04-25T14:29:05;2.37;;;2.37;;
27802;SDS011;15182;48.174;11.562;2023-04-25T14:31:39;2.30;;;2.30;;
27802;SDS011;15182;48.174;11.562;2023-04-25T14:34:10;3.00;;;2.97;;
27802;SDS011;15182;48.174;11.562;2023-04-25T14:36:42;2.20;;;2.20;;
27802;SDS011;15182;48.174;11.562;2023-04-25T14:39:13;2.30;;;2.30;;
27802;SDS011;15182;48.174;11.562;2023-04-25T14:41:44;2.30;;;2.30;;
27802;SDS011;15182;48.174;11.562;2023-04-25T14:44:15;2.60;;;2.60;;
27802;SDS011;15182;48.174;11.562;2023-04-25T14:46:48;2.50;;;2.50;;
27802;SDS011;15182;48.174;11.562;2023-04-25T14:49:19;2.30;;;2.30;;
27802;SDS011;15182;48.174;11.562;2023-04-25T14:51:50;2.10;;;2.10;;
27802;SDS011;15182;48.174;11.562;2023-04-25T14:54:22;2.37;;;2.33;;
27802;SDS011;15182;48.174;11.562;2023-04-25T14:56:53;2.30;;;2.30;;
27802;SDS011;15182;48.174;11.562;2023-04-25T14:59:24;2.00;;;2.00;;
27802;SDS011;15182;48.174;11.562;2023-04-25T15:01:57;2.20;;;2.20;;
27802;SDS011;15182;48.174;11.562;2023-04-25T15:04:30;2.30;;;2.30;;
27802;SDS011;15182;48.174;11.562;2023-04-25T15:07:02;2.40;;;2.40;;
27802;SDS011;15182;48.174;11.562;2023-04-25T15:09:34;2.03;;;2.03;;
27802;SDS011;15182;48.174;11.562;2023-04-25T15:12:09;2.27;;;2.27;;
27802;SDS011;15182;48.174;11.562;2023-04-25T15:14:41;2.30;;;2.30;;
27802;SDS011;15182;48.174;11.562;2023-04-25T15:17:13;2.70;;;2.50;;